Terminal Aerodrome Forecast
Issued by NWS

Home | Current Version | Previous Version | Text Only | Print | Product List | Glossary On
Versions: 1 2 3 4 5 6 7 8 9 10 11 12 13 14 15
574
FTUS45 KTFX 251123
TAFGTF
TAF
KGTF 251123Z 2512/2612 21010KT P6SM SKC
     FM260000 26007KT P6SM FEW060 SCT120
     FM260400 18008KT P6SM VCTS SCT045CB BKN100
     FM261000 21006KT P6SM SCT110=

USA.gov is the U.S. government's official web portal to all federal, state and local government web resources and services.